sensor_id;sensor_type;location;lat;lon;timestamp;P1;durP1;ratioP1;P2;durP2;ratioP2
21786;SDS011;11055;50.870;4.316;2023-11-18T00:01:11;18.67;;;11.73;;
21786;SDS011;11055;50.870;4.316;2023-11-18T00:03:37;17.65;;;10.75;;
21786;SDS011;11055;50.870;4.316;2023-11-18T00:06:03;18.45;;;11.13;;
21786;SDS011;11055;50.870;4.316;2023-11-18T00:08:29;17.60;;;10.85;;
21786;SDS011;11055;50.870;4.316;2023-11-18T00:10:56;19.52;;;11.68;;
21786;SDS011;11055;50.870;4.316;2023-11-18T00:13:21;15.43;;;10.52;;
21786;SDS011;11055;50.870;4.316;2023-11-18T00:15:47;18.90;;;11.18;;
21786;SDS011;11055;50.870;4.316;2023-11-18T00:18:13;14.90;;;9.98;;
21786;SDS011;11055;50.870;4.316;2023-11-18T00:20:38;16.08;;;9.18;;
21786;SDS011;11055;50.870;4.316;2023-11-18T00:23:04;17.75;;;10.60;;
21786;SDS011;11055;50.870;4.316;2023-11-18T00:25:30;18.60;;;10.90;;
21786;SDS011;11055;50.870;4.316;2023-11-18T00:27:56;17.88;;;9.98;;
21786;SDS011;11055;50.870;4.316;2023-11-18T00:30:22;17.67;;;10.25;;
21786;SDS011;11055;50.870;4.316;2023-11-18T00:32:48;16.67;;;10.35;;
21786;SDS011;11055;50.870;4.316;2023-11-18T00:35:14;16.50;;;10.70;;
21786;SDS011;11055;50.870;4.316;2023-11-18T00:37:39;14.77;;;10.50;;
21786;SDS011;11055;50.870;4.316;2023-11-18T00:40:06;19.48;;;10.93;;
21786;SDS011;11055;50.870;4.316;2023-11-18T00:42:33;15.73;;;11.02;;
21786;SDS011;11055;50.870;4.316;2023-11-18T00:44:58;20.20;;;10.25;;
21786;SDS011;11055;50.870;4.316;2023-11-18T00:47:24;20.75;;;10.65;;
21786;SDS011;11055;50.870;4.316;2023-11-18T00:49:49;17.75;;;10.32;;
21786;SDS011;11055;50.870;4.316;2023-11-18T00:52:17;21.92;;;10.85;;
21786;SDS011;11055;50.870;4.316;2023-11-18T00:54:43;18.80;;;10.23;;
21786;SDS011;11055;50.870;4.316;2023-11-18T00:57:09;18.23;;;10.55;;
21786;SDS011;11055;50.870;4.316;2023-11-18T00:59:35;19.58;;;10.63;;
21786;SDS011;11055;50.870;4.316;2023-11-18T01:02:00;15.45;;;10.23;;
21786;SDS011;11055;50.870;4.316;2023-11-18T01:04:28;20.60;;;9.93;;
21786;SDS011;11055;50.870;4.316;2023-11-18T01:06:54;18.40;;;9.98;;
21786;SDS011;11055;50.870;4.316;2023-11-18T01:09:20;20.80;;;10.98;;
21786;SDS011;11055;50.870;4.316;2023-11-18T01:11:45;18.38;;;10.82;;
21786;SDS011;11055;50.870;4.316;2023-11-18T01:14:11;21.33;;;11.10;;
21786;SDS011;11055;50.870;4.316;2023-11-18T01:16:36;16.42;;;9.73;;
21786;SDS011;11055;50.870;4.316;2023-11-18T01:19:03;19.95;;;10.65;;
21786;SDS011;11055;50.870;4.316;2023-11-18T01:21:28;14.63;;;8.90;;
21786;SDS011;11055;50.870;4.316;2023-11-18T01:23:54;15.95;;;9.35;;
21786;SDS011;11055;50.870;4.316;2023-11-18T01:26:20;16.85;;;9.98;;
21786;SDS011;11055;50.870;4.316;2023-11-18T01:28:46;15.60;;;8.75;;
21786;SDS011;11055;50.870;4.316;2023-11-18T01:31:12;15.20;;;8.80;;
21786;SDS011;11055;50.870;4.316;2023-11-18T01:33:38;16.17;;;8.60;;
21786;SDS011;11055;50.870;4.316;2023-11-18T01:36:05;16.77;;;8.57;;
21786;SDS011;11055;50.870;4.316;2023-11-18T01:38:33;14.57;;;8.13;;
21786;SDS011;11055;50.870;4.316;2023-11-18T01:40:59;14.25;;;7.32;;
21786;SDS011;11055;50.870;4.316;2023-11-18T01:43:25;16.35;;;8.70;;
21786;SDS011;11055;50.870;4.316;2023-11-18T01:45:51;15.13;;;7.95;;
21786;SDS011;11055;50.870;4.316;2023-11-18T01:48:18;13.90;;;8.25;;
21786;SDS011;11055;50.870;4.316;2023-11-18T01:50:47;19.02;;;9.15;;
21786;SDS011;11055;50.870;4.316;2023-11-18T01:53:14;20.42;;;9.73;;
21786;SDS011;11055;50.870;4.316;2023-11-18T01:55:40;15.70;;;8.77;;
21786;SDS011;11055;50.870;4.316;2023-11-18T01:58:07;16.95;;;8.65;;
21786;SDS011;11055;50.870;4.316;2023-11-18T02:00:36;14.32;;;8.50;;
21786;SDS011;11055;50.870;4.316;2023-11-18T02:03:03;12.88;;;8.45;;
21786;SDS011;11055;50.870;4.316;2023-11-18T02:05:30;10.98;;;7.45;;
21786;SDS011;11055;50.870;4.316;2023-11-18T02:07:58;12.73;;;7.55;;
21786;SDS011;11055;50.870;4.316;2023-11-18T02:10:29;14.70;;;7.82;;
21786;SDS011;11055;50.870;4.316;2023-11-18T02:13:10;13.15;;;7.13;;
21786;SDS011;11055;50.870;4.316;2023-11-18T02:15:45;12.38;;;7.70;;
21786;SDS011;11055;50.870;4.316;2023-11-18T02:18:10;13.65;;;7.93;;
21786;SDS011;11055;50.870;4.316;2023-11-18T02:20:38;13.68;;;7.35;;
21786;SDS011;11055;50.870;4.316;2023-11-18T02:23:04;15.52;;;7.00;;
21786;SDS011;11055;50.870;4.316;2023-11-18T02:25:33;12.32;;;6.88;;
21786;SDS011;11055;50.870;4.316;2023-11-18T02:27:59;12.15;;;6.53;;
21786;SDS011;11055;50.870;4.316;2023-11-18T02:30:25;13.48;;;7.35;;
21786;SDS011;11055;50.870;4.316;2023-11-18T02:32:58;13.65;;;6.65;;
21786;SDS011;11055;50.870;4.316;2023-11-18T02:35:52;13.57;;;6.30;;
21786;SDS011;11055;50.870;4.316;2023-11-18T02:38:22;13.00;;;6.18;;
21786;SDS011;11055;50.870;4.316;2023-11-18T02:40:55;11.60;;;5.45;;
21786;SDS011;11055;50.870;4.316;2023-11-18T02:43:24;11.63;;;5.15;;
21786;SDS011;11055;50.870;4.316;2023-11-18T02:45:53;10.95;;;5.18;;
21786;SDS011;11055;50.870;4.316;2023-11-18T02:48:22;13.48;;;5.47;;
21786;SDS011;11055;50.870;4.316;2023-11-18T02:50:48;11.60;;;5.13;;
21786;SDS011;11055;50.870;4.316;2023-11-18T02:53:14;11.93;;;4.88;;
21786;SDS011;11055;50.870;4.316;2023-11-18T02:55:40;8.20;;;4.20;;
21786;SDS011;11055;50.870;4.316;2023-11-18T02:58:06;13.95;;;4.80;;
21786;SDS011;11055;50.870;4.316;2023-11-18T03:00:32;13.30;;;4.18;;
21786;SDS011;11055;50.870;4.316;2023-11-18T03:02:58;9.35;;;4.10;;
21786;SDS011;11055;50.870;4.316;2023-11-18T03:05:24;10.52;;;4.47;;
21786;SDS011;11055;50.870;4.316;2023-11-18T03:07:51;12.82;;;4.90;;
21786;SDS011;11055;50.870;4.316;2023-11-18T03:10:19;9.57;;;4.30;;
21786;SDS011;11055;50.870;4.316;2023-11-18T03:12:48;10.63;;;3.97;;
21786;SDS011;11055;50.870;4.316;2023-11-18T03:15:18;10.57;;;3.73;;
21786;SDS011;11055;50.870;4.316;2023-11-18T03:17:51;14.48;;;4.40;;
21786;SDS011;11055;50.870;4.316;2023-11-18T03:20:17;10.55;;;4.22;;
21786;SDS011;11055;50.870;4.316;2023-11-18T03:22:44;8.00;;;3.33;;
21786;SDS011;11055;50.870;4.316;2023-11-18T03:25:11;11.40;;;4.25;;
21786;SDS011;11055;50.870;4.316;2023-11-18T03:27:37;10.77;;;3.92;;
21786;SDS011;11055;50.870;4.316;2023-11-18T03:30:03;9.48;;;3.42;;
21786;SDS011;11055;50.870;4.316;2023-11-18T03:32:31;13.05;;;4.25;;
21786;SDS011;11055;50.870;4.316;2023-11-18T03:34:57;13.23;;;3.55;;
21786;SDS011;11055;50.870;4.316;2023-11-18T03:37:24;9.63;;;3.50;;
21786;SDS011;11055;50.870;4.316;2023-11-18T03:39:51;9.82;;;3.50;;
21786;SDS011;11055;50.870;4.316;2023-11-18T03:42:17;9.52;;;3.58;;
21786;SDS011;11055;50.870;4.316;2023-11-18T03:44:43;8.52;;;3.35;;
21786;SDS011;11055;50.870;4.316;2023-11-18T03:47:12;10.75;;;3.30;;
21786;SDS011;11055;50.870;4.316;2023-11-18T03:49:39;11.80;;;3.80;;
21786;SDS011;11055;50.870;4.316;2023-11-18T03:52:05;8.20;;;3.35;;
21786;SDS011;11055;50.870;4.316;2023-11-18T03:54:31;12.70;;;3.22;;
21786;SDS011;11055;50.870;4.316;2023-11-18T03:56:56;7.82;;;2.97;;
21786;SDS011;11055;50.870;4.316;2023-11-18T03:59:22;7.72;;;3.38;;
21786;SDS011;11055;50.870;4.316;2023-11-18T04:01:48;9.73;;;3.40;;
21786;SDS011;11055;50.870;4.316;2023-11-18T04:04:15;10.68;;;3.15;;
21786;SDS011;11055;50.870;4.316;2023-11-18T04:06:42;7.80;;;3.20;;
21786;SDS011;11055;50.870;4.316;2023-11-18T04:09:07;11.07;;;3.13;;
21786;SDS011;11055;50.870;4.316;2023-11-18T04:11:35;10.60;;;3.20;;
21786;SDS011;11055;50.870;4.316;2023-11-18T04:14:00;9.02;;;3.35;;
21786;SDS011;11055;50.870;4.316;2023-11-18T04:16:28;11.35;;;3.42;;
21786;SDS011;11055;50.870;4.316;2023-11-18T04:18:54;8.85;;;2.85;;
21786;SDS011;11055;50.870;4.316;2023-11-18T04:21:20;8.32;;;2.67;;
21786;SDS011;11055;50.870;4.316;2023-11-18T04:23:46;11.82;;;3.42;;
21786;SDS011;11055;50.870;4.316;2023-11-18T04:26:12;8.23;;;2.50;;
21786;SDS011;11055;50.870;4.316;2023-11-18T04:28:38;8.57;;;3.17;;
21786;SDS011;11055;50.870;4.316;2023-11-18T04:31:03;10.70;;;2.47;;
21786;SDS011;11055;50.870;4.316;2023-11-18T04:33:32;8.50;;;3.15;;
21786;SDS011;11055;50.870;4.316;2023-11-18T04:35:58;8.13;;;2.83;;
21786;SDS011;11055;50.870;4.316;2023-11-18T04:38:24;9.07;;;3.05;;
21786;SDS011;11055;50.870;4.316;2023-11-18T04:40:54;8.35;;;2.70;;
21786;SDS011;11055;50.870;4.316;2023-11-18T04:43:20;12.27;;;2.58;;
21786;SDS011;11055;50.870;4.316;2023-11-18T04:45:47;9.65;;;2.78;;
21786;SDS011;11055;50.870;4.316;2023-11-18T04:48:13;9.05;;;2.50;;
21786;SDS011;11055;50.870;4.316;2023-11-18T04:50:41;6.82;;;2.40;;
21786;SDS011;11055;50.870;4.316;2023-11-18T04:53:07;6.60;;;2.65;;
21786;SDS011;11055;50.870;4.316;2023-11-18T04:55:35;5.22;;;2.08;;
21786;SDS011;11055;50.870;4.316;2023-11-18T04:58:01;8.30;;;2.50;;
21786;SDS011;11055;50.870;4.316;2023-11-18T05:00:27;10.95;;;2.50;;
21786;SDS011;11055;50.870;4.316;2023-11-18T05:02:54;9.00;;;2.30;;
21786;SDS011;11055;50.870;4.316;2023-11-18T05:05:19;8.73;;;2.05;;
21786;SDS011;11055;50.870;4.316;2023-11-18T05:07:47;11.95;;;2.20;;
21786;SDS011;11055;50.870;4.316;2023-11-18T05:10:12;8.63;;;2.22;;
21786;SDS011;11055;50.870;4.316;2023-11-18T05:12:38;7.40;;;2.28;;
21786;SDS011;11055;50.870;4.316;2023-11-18T05:15:05;8.48;;;2.03;;
21786;SDS011;11055;50.870;4.316;2023-11-18T05:17:35;8.85;;;2.35;;
21786;SDS011;11055;50.870;4.316;2023-11-18T05:20:05;8.95;;;2.22;;
21786;SDS011;11055;50.870;4.316;2023-11-18T05:22:36;7.80;;;2.30;;
21786;SDS011;11055;50.870;4.316;2023-11-18T05:25:02;7.75;;;2.10;;
21786;SDS011;11055;50.870;4.316;2023-11-18T05:27:29;8.85;;;2.17;;
21786;SDS011;11055;50.870;4.316;2023-11-18T05:29:56;7.15;;;2.10;;
21786;SDS011;11055;50.870;4.316;2023-11-18T05:32:27;6.82;;;2.03;;
21786;SDS011;11055;50.870;4.316;2023-11-18T05:34:53;10.63;;;2.20;;
21786;SDS011;11055;50.870;4.316;2023-11-18T05:37:20;7.18;;;2.35;;
21786;SDS011;11055;50.870;4.316;2023-11-18T05:39:46;12.45;;;3.92;;
21786;SDS011;11055;50.870;4.316;2023-11-18T05:42:14;5.90;;;2.15;;
21786;SDS011;11055;50.870;4.316;2023-11-18T05:44:40;9.10;;;2.00;;
21786;SDS011;11055;50.870;4.316;2023-11-18T05:47:07;9.02;;;2.20;;
21786;SDS011;11055;50.870;4.316;2023-11-18T05:49:35;7.78;;;2.08;;
21786;SDS011;11055;50.870;4.316;2023-11-18T05:52:01;9.43;;;2.20;;
21786;SDS011;11055;50.870;4.316;2023-11-18T05:54:27;8.10;;;2.13;;
21786;SDS011;11055;50.870;4.316;2023-11-18T05:56:53;5.20;;;1.55;;
21786;SDS011;11055;50.870;4.316;2023-11-18T05:59:19;7.38;;;2.10;;
21786;SDS011;11055;50.870;4.316;2023-11-18T06:01:44;3.72;;;1.70;;
21786;SDS011;11055;50.870;4.316;2023-11-18T06:04:12;7.05;;;2.30;;
21786;SDS011;11055;50.870;4.316;2023-11-18T06:06:38;7.57;;;2.03;;
21786;SDS011;11055;50.870;4.316;2023-11-18T06:09:04;9.07;;;2.30;;
21786;SDS011;11055;50.870;4.316;2023-11-18T06:11:34;8.65;;;2.47;;
21786;SDS011;11055;50.870;4.316;2023-11-18T06:14:00;9.65;;;2.33;;
21786;SDS011;11055;50.870;4.316;2023-11-18T06:16:26;5.43;;;2.30;;
21786;SDS011;11055;50.870;4.316;2023-11-18T06:18:53;3.92;;;1.75;;
21786;SDS011;11055;50.870;4.316;2023-11-18T06:21:20;12.05;;;2.53;;
21786;SDS011;11055;50.870;4.316;2023-11-18T06:23:56;5.32;;;2.33;;
21786;SDS011;11055;50.870;4.316;2023-11-18T06:26:25;8.10;;;2.10;;
21786;SDS011;11055;50.870;4.316;2023-11-18T06:28:52;10.25;;;2.45;;
21786;SDS011;11055;50.870;4.316;2023-11-18T06:31:19;8.20;;;1.92;;
21786;SDS011;11055;50.870;4.316;2023-11-18T06:33:45;9.20;;;2.40;;
21786;SDS011;11055;50.870;4.316;2023-11-18T06:38:44;7.25;;;2.30;;
21786;SDS011;11055;50.870;4.316;2023-11-18T06:41:11;6.32;;;2.25;;
21786;SDS011;11055;50.870;4.316;2023-11-18T06:43:39;7.63;;;2.47;;
21786;SDS011;11055;50.870;4.316;2023-11-18T06:46:24;7.93;;;2.03;;
21786;SDS011;11055;50.870;4.316;2023-11-18T06:48:51;8.23;;;1.83;;
21786;SDS011;11055;50.870;4.316;2023-11-18T06:51:22;7.72;;;2.10;;
21786;SDS011;11055;50.870;4.316;2023-11-18T06:53:49;6.53;;;2.03;;
21786;SDS011;11055;50.870;4.316;2023-11-18T06:56:16;9.75;;;2.45;;
21786;SDS011;11055;50.870;4.316;2023-11-18T06:58:42;8.90;;;2.47;;
21786;SDS011;11055;50.870;4.316;2023-11-18T07:01:08;8.30;;;2.58;;
21786;SDS011;11055;50.870;4.316;2023-11-18T07:03:35;5.88;;;1.80;;
21786;SDS011;11055;50.870;4.316;2023-11-18T07:06:04;7.88;;;1.98;;
21786;SDS011;11055;50.870;4.316;2023-11-18T07:08:31;9.02;;;2.05;;
21786;SDS011;11055;50.870;4.316;2023-11-18T07:10:57;10.02;;;2.25;;
21786;SDS011;11055;50.870;4.316;2023-11-18T07:13:23;11.75;;;2.20;;
21786;SDS011;11055;50.870;4.316;2023-11-18T07:15:51;11.18;;;2.53;;
21786;SDS011;11055;50.870;4.316;2023-11-18T07:18:19;10.20;;;2.13;;
21786;SDS011;11055;50.870;4.316;2023-11-18T07:20:47;11.77;;;2.20;;
21786;SDS011;11055;50.870;4.316;2023-11-18T07:23:17;8.43;;;2.17;;
21786;SDS011;11055;50.870;4.316;2023-11-18T07:25:46;7.32;;;2.17;;
21786;SDS011;11055;50.870;4.316;2023-11-18T07:28:12;5.60;;;2.05;;
21786;SDS011;11055;50.870;4.316;2023-11-18T07:30:42;7.85;;;2.15;;
21786;SDS011;11055;50.870;4.316;2023-11-18T07:33:21;7.63;;;2.65;;
21786;SDS011;11055;50.870;4.316;2023-11-18T07:35:47;8.38;;;2.42;;
21786;SDS011;11055;50.870;4.316;2023-11-18T07:38:13;7.40;;;2.45;;
21786;SDS011;11055;50.870;4.316;2023-11-18T07:40:40;7.93;;;2.10;;
21786;SDS011;11055;50.870;4.316;2023-11-18T07:43:10;12.80;;;3.28;;
21786;SDS011;11055;50.870;4.316;2023-11-18T07:45:40;8.45;;;2.75;;
21786;SDS011;11055;50.870;4.316;2023-11-18T07:48:07;9.18;;;2.75;;
21786;SDS011;11055;50.870;4.316;2023-11-18T07:50:42;10.65;;;3.63;;
21786;SDS011;11055;50.870;4.316;2023-11-18T07:53:11;8.88;;;3.25;;
21786;SDS011;11055;50.870;4.316;2023-11-18T07:55:36;9.07;;;3.45;;
21786;SDS011;11055;50.870;4.316;2023-11-18T07:58:08;6.95;;;2.78;;
21786;SDS011;11055;50.870;4.316;2023-11-18T08:03:04;7.70;;;3.35;;
21786;SDS011;11055;50.870;4.316;2023-11-18T08:05:43;10.27;;;3.78;;
21786;SDS011;11055;50.870;4.316;2023-11-18T08:08:10;10.25;;;3.92;;
21786;SDS011;11055;50.870;4.316;2023-11-18T08:10:36;9.85;;;3.80;;
21786;SDS011;11055;50.870;4.316;2023-11-18T08:13:06;8.90;;;4.30;;
21786;SDS011;11055;50.870;4.316;2023-11-18T08:15:42;13.00;;;5.07;;
21786;SDS011;11055;50.870;4.316;2023-11-18T08:18:11;13.00;;;4.60;;
21786;SDS011;11055;50.870;4.316;2023-11-18T08:20:37;10.45;;;4.93;;
21786;SDS011;11055;50.870;4.316;2023-11-18T08:23:03;8.95;;;5.47;;
21786;SDS011;11055;50.870;4.316;2023-11-18T08:25:32;15.35;;;5.60;;
21786;SDS011;11055;50.870;4.316;2023-11-18T08:27:59;12.45;;;5.55;;
21786;SDS011;11055;50.870;4.316;2023-11-18T08:30:25;12.18;;;5.82;;
21786;SDS011;11055;50.870;4.316;2023-11-18T08:32:51;15.25;;;5.75;;
21786;SDS011;11055;50.870;4.316;2023-11-18T08:35:17;15.18;;;6.70;;
21786;SDS011;11055;50.870;4.316;2023-11-18T08:37:43;8.98;;;5.72;;
21786;SDS011;11055;50.870;4.316;2023-11-18T08:40:11;14.73;;;5.88;;
21786;SDS011;11055;50.870;4.316;2023-11-18T08:42:49;16.63;;;6.88;;
21786;SDS011;11055;50.870;4.316;2023-11-18T08:45:17;11.63;;;5.80;;
21786;SDS011;11055;50.870;4.316;2023-11-18T08:47:52;12.07;;;6.97;;
21786;SDS011;11055;50.870;4.316;2023-11-18T08:50:18;12.27;;;6.20;;
21786;SDS011;11055;50.870;4.316;2023-11-18T08:52:44;11.45;;;6.68;;
21786;SDS011;11055;50.870;4.316;2023-11-18T08:55:15;15.43;;;6.32;;
21786;SDS011;11055;50.870;4.316;2023-11-18T08:57:50;12.32;;;6.70;;
21786;SDS011;11055;50.870;4.316;2023-11-18T09:00:29;8.82;;;6.07;;
21786;SDS011;11055;50.870;4.316;2023-11-18T09:03:11;11.50;;;6.00;;
21786;SDS011;11055;50.870;4.316;2023-11-18T09:05:50;12.20;;;6.70;;
21786;SDS011;11055;50.870;4.316;2023-11-18T09:08:23;11.07;;;6.20;;
21786;SDS011;11055;50.870;4.316;2023-11-18T09:10:59;11.73;;;6.63;;
21786;SDS011;11055;50.870;4.316;2023-11-18T09:13:27;11.23;;;6.43;;
21786;SDS011;11055;50.870;4.316;2023-11-18T09:15:57;10.02;;;6.38;;
21786;SDS011;11055;50.870;4.316;2023-11-18T09:18:25;11.38;;;6.03;;
21786;SDS011;11055;50.870;4.316;2023-11-18T09:20:52;14.57;;;6.63;;
21786;SDS011;11055;50.870;4.316;2023-11-18T09:23:20;11.65;;;6.65;;
21786;SDS011;11055;50.870;4.316;2023-11-18T09:25:48;9.63;;;6.10;;
21786;SDS011;11055;50.870;4.316;2023-11-18T09:28:15;9.45;;;6.38;;
21786;SDS011;11055;50.870;4.316;2023-11-18T09:30:47;10.68;;;6.82;;
21786;SDS011;11055;50.870;4.316;2023-11-18T09:33:31;13.15;;;6.10;;
21786;SDS011;11055;50.870;4.316;2023-11-18T09:38:31;9.23;;;6.28;;
21786;SDS011;11055;50.870;4.316;2023-11-18T09:41:02;11.30;;;5.97;;
21786;SDS011;11055;50.870;4.316;2023-11-18T09:43:32;10.88;;;6.75;;
21786;SDS011;11055;50.870;4.316;2023-11-18T09:46:07;12.50;;;7.18;;
21786;SDS011;11055;50.870;4.316;2023-11-18T09:48:45;13.15;;;6.50;;
21786;SDS011;11055;50.870;4.316;2023-11-18T09:51:14;15.93;;;7.60;;
21786;SDS011;11055;50.870;4.316;2023-11-18T09:53:43;13.05;;;6.90;;
21786;SDS011;11055;50.870;4.316;2023-11-18T09:56:13;12.77;;;7.40;;
21786;SDS011;11055;50.870;4.316;2023-11-18T09:59:10;16.08;;;7.28;;
21786;SDS011;11055;50.870;4.316;2023-11-18T10:01:42;10.38;;;6.10;;
21786;SDS011;11055;50.870;4.316;2023-11-18T10:04:09;10.40;;;6.20;;
21786;SDS011;11055;50.870;4.316;2023-11-18T10:06:36;12.15;;;6.78;;
21786;SDS011;11055;50.870;4.316;2023-11-18T10:09:05;13.57;;;6.78;;
21786;SDS011;11055;50.870;4.316;2023-11-18T10:11:47;11.05;;;6.47;;
21786;SDS011;11055;50.870;4.316;2023-11-18T10:14:16;10.20;;;6.60;;
21786;SDS011;11055;50.870;4.316;2023-11-18T10:16:45;10.73;;;6.32;;
21786;SDS011;11055;50.870;4.316;2023-11-18T10:19:11;11.27;;;7.13;;
21786;SDS011;11055;50.870;4.316;2023-11-18T10:21:39;8.73;;;6.68;;
21786;SDS011;11055;50.870;4.316;2023-11-18T10:24:06;9.48;;;6.45;;
21786;SDS011;11055;50.870;4.316;2023-11-18T10:26:39;8.43;;;6.43;;
21786;SDS011;11055;50.870;4.316;2023-11-18T10:29:10;11.02;;;6.70;;
21786;SDS011;11055;50.870;4.316;2023-11-18T10:31:39;9.88;;;6.45;;
21786;SDS011;11055;50.870;4.316;2023-11-18T10:34:13;10.07;;;6.30;;
21786;SDS011;11055;50.870;4.316;2023-11-18T10:36:41;10.15;;;6.88;;
21786;SDS011;11055;50.870;4.316;2023-11-18T10:39:13;12.05;;;6.50;;
21786;SDS011;11055;50.870;4.316;2023-11-18T10:41:41;9.07;;;5.63;;
21786;SDS011;11055;50.870;4.316;2023-11-18T10:44:08;12.57;;;6.78;;
21786;SDS011;11055;50.870;4.316;2023-11-18T10:46:41;7.75;;;5.43;;
21786;SDS011;11055;50.870;4.316;2023-11-18T10:49:16;7.40;;;5.70;;
21786;SDS011;11055;50.870;4.316;2023-11-18T10:51:42;9.25;;;5.55;;
21786;SDS011;11055;50.870;4.316;2023-11-18T10:54:12;8.68;;;5.47;;
21786;SDS011;11055;50.870;4.316;2023-11-18T10:56:50;7.45;;;5.28;;
21786;SDS011;11055;50.870;4.316;2023-11-18T10:59:21;6.00;;;4.97;;
21786;SDS011;11055;50.870;4.316;2023-11-18T11:01:48;8.00;;;4.97;;
21786;SDS011;11055;50.870;4.316;2023-11-18T11:04:14;6.22;;;4.65;;
21786;SDS011;11055;50.870;4.316;2023-11-18T11:06:46;6.95;;;4.07;;
21786;SDS011;11055;50.870;4.316;2023-11-18T11:09:23;7.20;;;4.28;;
21786;SDS011;11055;50.870;4.316;2023-11-18T11:11:59;6.20;;;3.50;;
21786;SDS011;11055;50.870;4.316;2023-11-18T11:14:32;9.75;;;7.22;;
21786;SDS011;11055;50.870;4.316;2023-11-18T11:17:05;5.32;;;3.78;;
21786;SDS011;11055;50.870;4.316;2023-11-18T11:19:50;4.43;;;2.75;;
21786;SDS011;11055;50.870;4.316;2023-11-18T11:22:30;3.60;;;2.85;;
21786;SDS011;11055;50.870;4.316;2023-11-18T11:25:09;5.60;;;2.75;;
21786;SDS011;11055;50.870;4.316;2023-11-18T11:30:47;5.05;;;2.72;;
21786;SDS011;11055;50.870;4.316;2023-11-18T11:33:29;5.45;;;3.03;;
21786;SDS011;11055;50.870;4.316;2023-11-18T11:36:05;5.47;;;2.83;;
21786;SDS011;11055;50.870;4.316;2023-11-18T11:38:36;4.15;;;2.53;;
21786;SDS011;11055;50.870;4.316;2023-11-18T11:41:03;4.53;;;2.20;;
21786;SDS011;11055;50.870;4.316;2023-11-18T11:43:30;3.10;;;1.60;;
21786;SDS011;11055;50.870;4.316;2023-11-18T11:45:59;3.60;;;1.73;;
21786;SDS011;11055;50.870;4.316;2023-11-18T11:48:35;4.65;;;2.00;;
21786;SDS011;11055;50.870;4.316;2023-11-18T11:51:03;4.80;;;2.92;;
21786;SDS011;11055;50.870;4.316;2023-11-18T11:53:31;3.78;;;1.92;;
21786;SDS011;11055;50.870;4.316;2023-11-18T11:58:32;2.45;;;1.65;;
21786;SDS011;11055;50.870;4.316;2023-11-18T12:00:59;3.33;;;1.67;;
21786;SDS011;11055;50.870;4.316;2023-11-18T12:03:26;3.92;;;2.10;;
21786;SDS011;11055;50.870;4.316;2023-11-18T12:06:01;3.72;;;1.90;;
21786;SDS011;11055;50.870;4.316;2023-11-18T12:08:34;3.67;;;1.75;;
21786;SDS011;11055;50.870;4.316;2023-11-18T12:11:01;2.72;;;1.95;;
21786;SDS011;11055;50.870;4.316;2023-11-18T12:13:27;3.53;;;1.60;;
21786;SDS011;11055;50.870;4.316;2023-11-18T12:15:59;3.40;;;1.63;;
21786;SDS011;11055;50.870;4.316;2023-11-18T12:18:35;2.80;;;1.42;;
21786;SDS011;11055;50.870;4.316;2023-11-18T12:21:02;1.95;;;1.48;;
21786;SDS011;11055;50.870;4.316;2023-11-18T12:23:29;1.33;;;1.23;;
21786;SDS011;11055;50.870;4.316;2023-11-18T12:25:55;4.15;;;1.60;;
21786;SDS011;11055;50.870;4.316;2023-11-18T12:30:56;2.45;;;1.75;;
21786;SDS011;11055;50.870;4.316;2023-11-18T12:34:00;2.63;;;1.35;;
21786;SDS011;11055;50.870;4.316;2023-11-18T12:41:48;1.60;;;0.90;;
21786;SDS011;11055;50.870;4.316;2023-11-18T12:47:04;1.65;;;1.10;;
21786;SDS011;11055;50.870;4.316;2023-11-18T12:49:46;1.88;;;1.00;;
21786;SDS011;11055;50.870;4.316;2023-11-18T12:52:19;1.52;;;1.05;;
21786;SDS011;11055;50.870;4.316;2023-11-18T12:54:46;2.42;;;1.50;;
21786;SDS011;11055;50.870;4.316;2023-11-18T12:57:22;3.75;;;3.25;;
21786;SDS011;11055;50.870;4.316;2023-11-18T12:59:56;3.28;;;1.20;;
21786;SDS011;11055;50.870;4.316;2023-11-18T13:02:21;5.30;;;1.40;;
21786;SDS011;11055;50.870;4.316;2023-11-18T13:04:48;1.67;;;1.13;;
21786;SDS011;11055;50.870;4.316;2023-11-18T13:07:15;2.83;;;1.50;;
21786;SDS011;11055;50.870;4.316;2023-11-18T13:12:12;1.48;;;1.10;;
21786;SDS011;11055;50.870;4.316;2023-11-18T13:14:42;1.55;;;1.00;;
21786;SDS011;11055;50.870;4.316;2023-11-18T13:17:09;1.30;;;1.20;;
21786;SDS011;11055;50.870;4.316;2023-11-18T13:19:40;2.30;;;1.73;;
21786;SDS011;11055;50.870;4.316;2023-11-18T13:22:07;3.03;;;1.23;;
21786;SDS011;11055;50.870;4.316;2023-11-18T13:24:38;2.05;;;1.77;;
21786;SDS011;11055;50.870;4.316;2023-11-18T13:27:05;1.63;;;1.13;;
21786;SDS011;11055;50.870;4.316;2023-11-18T13:29:35;3.60;;;2.10;;
21786;SDS011;11055;50.870;4.316;2023-11-18T13:32:04;1.88;;;1.77;;
21786;SDS011;11055;50.870;4.316;2023-11-18T13:34:34;1.10;;;1.00;;
21786;SDS011;11055;50.870;4.316;2023-11-18T13:37:03;0.98;;;0.98;;
21786;SDS011;11055;50.870;4.316;2023-11-18T13:39:31;2.13;;;1.92;;
21786;SDS011;11055;50.870;4.316;2023-11-18T13:41:57;2.67;;;1.90;;
21786;SDS011;11055;50.870;4.316;2023-11-18T13:44:32;2.47;;;1.48;;
21786;SDS011;11055;50.870;4.316;2023-11-18T13:47:04;0.70;;;0.70;;
21786;SDS011;11055;50.870;4.316;2023-11-18T13:49:36;1.30;;;1.20;;
21786;SDS011;11055;50.870;4.316;2023-11-18T13:52:07;2.60;;;0.93;;
21786;SDS011;11055;50.870;4.316;2023-11-18T13:54:35;3.22;;;1.10;;
21786;SDS011;11055;50.870;4.316;2023-11-18T13:57:05;2.60;;;1.10;;
21786;SDS011;11055;50.870;4.316;2023-11-18T13:59:31;1.80;;;1.30;;
21786;SDS011;11055;50.870;4.316;2023-11-18T14:01:58;1.52;;;1.33;;
21786;SDS011;11055;50.870;4.316;2023-11-18T14:04:30;1.23;;;1.08;;
21786;SDS011;11055;50.870;4.316;2023-11-18T14:07:01;2.15;;;1.50;;
21786;SDS011;11055;50.870;4.316;2023-11-18T14:09:31;1.10;;;1.00;;
21786;SDS011;11055;50.870;4.316;2023-11-18T14:12:01;1.73;;;1.20;;
21786;SDS011;11055;50.870;4.316;2023-11-18T14:14:28;1.77;;;1.20;;
21786;SDS011;11055;50.870;4.316;2023-11-18T14:16:54;3.25;;;1.70;;
21786;SDS011;11055;50.870;4.316;2023-11-18T14:19:24;2.30;;;1.20;;
21786;SDS011;11055;50.870;4.316;2023-11-18T14:21:53;2.30;;;2.08;;
21786;SDS011;11055;50.870;4.316;2023-11-18T14:24:19;4.43;;;2.20;;
21786;SDS011;11055;50.870;4.316;2023-11-18T14:26:48;2.42;;;1.90;;
21786;SDS011;11055;50.870;4.316;2023-11-18T14:29:15;3.33;;;1.50;;
21786;SDS011;11055;50.870;4.316;2023-11-18T14:31:41;2.08;;;1.98;;
21786;SDS011;11055;50.870;4.316;2023-11-18T14:34:07;2.80;;;1.50;;
21786;SDS011;11055;50.870;4.316;2023-11-18T14:36:36;1.85;;;1.10;;
21786;SDS011;11055;50.870;4.316;2023-11-18T14:39:02;1.35;;;1.20;;
21786;SDS011;11055;50.870;4.316;2023-11-18T14:41:28;1.35;;;1.10;;
21786;SDS011;11055;50.870;4.316;2023-11-18T14:43:56;1.48;;;1.08;;
21786;SDS011;11055;50.870;4.316;2023-11-18T14:46:23;2.58;;;2.10;;
21786;SDS011;11055;50.870;4.316;2023-11-18T14:48:49;2.10;;;1.90;;
21786;SDS011;11055;50.870;4.316;2023-11-18T14:51:15;1.33;;;1.20;;
21786;SDS011;11055;50.870;4.316;2023-11-18T14:53:41;2.10;;;1.23;;
21786;SDS011;11055;50.870;4.316;2023-11-18T14:56:08;1.98;;;1.00;;
21786;SDS011;11055;50.870;4.316;2023-11-18T14:58:34;3.03;;;2.17;;
21786;SDS011;11055;50.870;4.316;2023-11-18T15:01:02;1.45;;;1.15;;
21786;SDS011;11055;50.870;4.316;2023-11-18T15:03:28;2.20;;;1.23;;
21786;SDS011;11055;50.870;4.316;2023-11-18T15:05:56;0.90;;;0.90;;
21786;SDS011;11055;50.870;4.316;2023-11-18T15:08:22;1.65;;;1.50;;
21786;SDS011;11055;50.870;4.316;2023-11-18T15:10:47;1.65;;;1.55;;
21786;SDS011;11055;50.870;4.316;2023-11-18T15:13:13;1.20;;;1.00;;
21786;SDS011;11055;50.870;4.316;2023-11-18T15:15:41;3.50;;;1.73;;